sensor_id;sensor_type;location;lat;lon;timestamp;P1;durP1;ratioP1;P2;durP2;ratioP2
60819;SDS011;46641;48.904;9.126;2023-04-24T00:03:20;0.87;;;0.87;;
60819;SDS011;46641;48.904;9.126;2023-04-24T00:08:12;0.80;;;0.80;;
60819;SDS011;46641;48.904;9.126;2023-04-24T00:13:02;1.10;;;0.70;;
60819;SDS011;46641;48.904;9.126;2023-04-24T00:17:52;0.50;;;0.50;;
60819;SDS011;46641;48.904;9.126;2023-04-24T00:22:43;0.70;;;0.70;;
60819;SDS011;46641;48.904;9.126;2023-04-24T00:27:33;2.47;;;1.10;;
60819;SDS011;46641;48.904;9.126;2023-04-24T00:32:25;0.80;;;0.80;;
60819;SDS011;46641;48.904;9.126;2023-04-24T00:37:15;2.17;;;0.70;;
60819;SDS011;46641;48.904;9.126;2023-04-24T00:42:06;1.50;;;0.70;;
60819;SDS011;46641;48.904;9.126;2023-04-24T00:46:56;1.10;;;0.90;;
60819;SDS011;46641;48.904;9.126;2023-04-24T00:51:48;1.70;;;0.87;;
60819;SDS011;46641;48.904;9.126;2023-04-24T00:56:41;1.13;;;0.83;;
60819;SDS011;46641;48.904;9.126;2023-04-24T01:01:32;0.73;;;0.73;;
60819;SDS011;46641;48.904;9.126;2023-04-24T01:06:23;0.50;;;0.50;;
60819;SDS011;46641;48.904;9.126;2023-04-24T01:11:17;1.43;;;0.63;;
60819;SDS011;46641;48.904;9.126;2023-04-24T01:16:07;1.13;;;0.70;;
60819;SDS011;46641;48.904;9.126;2023-04-24T01:20:58;0.77;;;0.77;;
60819;SDS011;46641;48.904;9.126;2023-04-24T01:25:53;0.70;;;0.70;;
60819;SDS011;46641;48.904;9.126;2023-04-24T01:30:44;0.77;;;0.70;;
60819;SDS011;46641;48.904;9.126;2023-04-24T01:35:34;0.70;;;0.70;;
60819;SDS011;46641;48.904;9.126;2023-04-24T01:40:26;1.17;;;0.70;;
60819;SDS011;46641;48.904;9.126;2023-04-24T01:45:16;0.87;;;0.80;;
60819;SDS011;46641;48.904;9.126;2023-04-24T01:50:06;0.63;;;0.63;;
60819;SDS011;46641;48.904;9.126;2023-04-24T01:54:59;0.70;;;0.70;;
60819;SDS011;46641;48.904;9.126;2023-04-24T01:59:50;1.03;;;0.70;;
60819;SDS011;46641;48.904;9.126;2023-04-24T02:04:41;0.60;;;0.60;;
60819;SDS011;46641;48.904;9.126;2023-04-24T02:09:31;0.50;;;0.50;;
60819;SDS011;46641;48.904;9.126;2023-04-24T02:14:21;1.38;;;0.50;;
60819;SDS011;46641;48.904;9.126;2023-04-24T02:19:11;1.70;;;1.38;;
60819;SDS011;46641;48.904;9.126;2023-04-24T02:24:02;0.80;;;0.60;;
60819;SDS011;46641;48.904;9.126;2023-04-24T02:28:52;1.13;;;0.70;;
60819;SDS011;46641;48.904;9.126;2023-04-24T02:33:42;1.23;;;0.60;;
60819;SDS011;46641;48.904;9.126;2023-04-24T02:38:33;0.80;;;0.73;;
60819;SDS011;46641;48.904;9.126;2023-04-24T02:43:23;0.73;;;0.68;;
60819;SDS011;46641;48.904;9.126;2023-04-24T02:48:13;0.70;;;0.70;;
60819;SDS011;46641;48.904;9.126;2023-04-24T02:53:04;2.40;;;0.83;;
60819;SDS011;46641;48.904;9.126;2023-04-24T02:57:54;1.10;;;0.70;;
60819;SDS011;46641;48.904;9.126;2023-04-24T03:02:45;1.13;;;0.60;;
60819;SDS011;46641;48.904;9.126;2023-04-24T03:07:35;2.70;;;1.03;;
60819;SDS011;46641;48.904;9.126;2023-04-24T03:12:26;0.90;;;0.70;;
60819;SDS011;46641;48.904;9.126;2023-04-24T03:17:17;1.03;;;0.80;;
60819;SDS011;46641;48.904;9.126;2023-04-24T03:22:07;1.43;;;0.80;;
60819;SDS011;46641;48.904;9.126;2023-04-24T03:26:59;1.57;;;0.83;;
60819;SDS011;46641;48.904;9.126;2023-04-24T03:31:50;1.27;;;1.10;;
60819;SDS011;46641;48.904;9.126;2023-04-24T03:36:40;0.60;;;0.60;;
60819;SDS011;46641;48.904;9.126;2023-04-24T03:41:30;1.40;;;1.30;;
60819;SDS011;46641;48.904;9.126;2023-04-24T03:46:21;2.17;;;0.90;;
60819;SDS011;46641;48.904;9.126;2023-04-24T03:51:11;0.70;;;0.70;;
60819;SDS011;46641;48.904;9.126;2023-04-24T03:56:01;1.13;;;0.75;;
60819;SDS011;46641;48.904;9.126;2023-04-24T04:00:52;0.73;;;0.63;;
60819;SDS011;46641;48.904;9.126;2023-04-24T04:05:42;1.20;;;0.80;;
60819;SDS011;46641;48.904;9.126;2023-04-24T04:10:32;3.70;;;0.70;;
60819;SDS011;46641;48.904;9.126;2023-04-24T04:15:22;1.67;;;0.90;;
60819;SDS011;46641;48.904;9.126;2023-04-24T04:20:13;2.40;;;1.20;;
60819;SDS011;46641;48.904;9.126;2023-04-24T04:25:03;1.70;;;1.03;;
60819;SDS011;46641;48.904;9.126;2023-04-24T04:29:54;1.50;;;0.93;;
60819;SDS011;46641;48.904;9.126;2023-04-24T04:34:46;1.20;;;1.10;;
60819;SDS011;46641;48.904;9.126;2023-04-24T04:39:36;1.70;;;1.00;;
60819;SDS011;46641;48.904;9.126;2023-04-24T04:44:26;2.13;;;1.23;;
60819;SDS011;46641;48.904;9.126;2023-04-24T04:49:17;1.53;;;1.00;;
60819;SDS011;46641;48.904;9.126;2023-04-24T04:54:08;1.30;;;0.80;;
60819;SDS011;46641;48.904;9.126;2023-04-24T04:58:58;0.93;;;0.65;;
60819;SDS011;46641;48.904;9.126;2023-04-24T05:03:49;1.17;;;1.13;;
60819;SDS011;46641;48.904;9.126;2023-04-24T05:08:39;0.87;;;0.87;;
60819;SDS011;46641;48.904;9.126;2023-04-24T05:13:30;1.03;;;0.93;;
60819;SDS011;46641;48.904;9.126;2023-04-24T05:18:20;1.13;;;1.00;;
60819;SDS011;46641;48.904;9.126;2023-04-24T05:23:10;1.98;;;1.10;;
60819;SDS011;46641;48.904;9.126;2023-04-24T05:28:01;2.83;;;2.00;;
60819;SDS011;46641;48.904;9.126;2023-04-24T05:32:52;1.40;;;1.30;;
60819;SDS011;46641;48.904;9.126;2023-04-24T05:37:42;2.20;;;1.40;;
60819;SDS011;46641;48.904;9.126;2023-04-24T05:42:32;1.90;;;1.40;;
60819;SDS011;46641;48.904;9.126;2023-04-24T05:47:23;2.70;;;1.60;;
60819;SDS011;46641;48.904;9.126;2023-04-24T05:52:13;1.40;;;1.30;;
60819;SDS011;46641;48.904;9.126;2023-04-24T05:57:03;1.43;;;1.33;;
60819;SDS011;46641;48.904;9.126;2023-04-24T06:01:57;1.73;;;1.63;;
60819;SDS011;46641;48.904;9.126;2023-04-24T06:06:47;1.83;;;1.60;;
60819;SDS011;46641;48.904;9.126;2023-04-24T06:11:40;1.87;;;1.20;;
60819;SDS011;46641;48.904;9.126;2023-04-24T06:16:31;2.47;;;1.33;;
60819;SDS011;46641;48.904;9.126;2023-04-24T06:21:21;2.43;;;1.40;;
60819;SDS011;46641;48.904;9.126;2023-04-24T06:26:12;1.60;;;1.50;;
60819;SDS011;46641;48.904;9.126;2023-04-24T06:31:02;2.00;;;1.40;;
60819;SDS011;46641;48.904;9.126;2023-04-24T06:35:52;1.70;;;1.60;;
60819;SDS011;46641;48.904;9.126;2023-04-24T06:40:42;2.67;;;1.75;;
60819;SDS011;46641;48.904;9.126;2023-04-24T06:45:33;1.93;;;1.67;;
60819;SDS011;46641;48.904;9.126;2023-04-24T06:50:23;1.77;;;1.50;;
60819;SDS011;46641;48.904;9.126;2023-04-24T06:55:14;1.80;;;1.70;;
60819;SDS011;46641;48.904;9.126;2023-04-24T07:00:06;1.47;;;1.37;;
60819;SDS011;46641;48.904;9.126;2023-04-24T07:04:59;2.37;;;1.77;;
60819;SDS011;46641;48.904;9.126;2023-04-24T07:09:49;2.27;;;2.07;;
60819;SDS011;46641;48.904;9.126;2023-04-24T07:14:40;1.77;;;1.67;;
60819;SDS011;46641;48.904;9.126;2023-04-24T07:19:30;3.40;;;2.27;;
60819;SDS011;46641;48.904;9.126;2023-04-24T07:24:21;2.23;;;1.80;;
60819;SDS011;46641;48.904;9.126;2023-04-24T07:29:12;1.73;;;1.63;;
60819;SDS011;46641;48.904;9.126;2023-04-24T07:34:03;2.17;;;1.80;;
60819;SDS011;46641;48.904;9.126;2023-04-24T07:38:53;2.67;;;1.57;;
60819;SDS011;46641;48.904;9.126;2023-04-24T07:43:45;1.93;;;1.80;;
60819;SDS011;46641;48.904;9.126;2023-04-24T07:48:36;2.23;;;1.70;;
60819;SDS011;46641;48.904;9.126;2023-04-24T07:53:26;1.90;;;1.80;;
60819;SDS011;46641;48.904;9.126;2023-04-24T07:58:17;2.30;;;2.10;;
60819;SDS011;46641;48.904;9.126;2023-04-24T08:03:07;2.17;;;1.70;;
60819;SDS011;46641;48.904;9.126;2023-04-24T08:07:58;1.90;;;1.80;;
60819;SDS011;46641;48.904;9.126;2023-04-24T08:12:48;2.57;;;1.47;;
60819;SDS011;46641;48.904;9.126;2023-04-24T08:17:38;1.80;;;1.70;;
60819;SDS011;46641;48.904;9.126;2023-04-24T08:22:29;1.70;;;1.60;;
60819;SDS011;46641;48.904;9.126;2023-04-24T08:27:19;1.40;;;1.35;;
60819;SDS011;46641;48.904;9.126;2023-04-24T08:32:10;4.37;;;1.67;;
60819;SDS011;46641;48.904;9.126;2023-04-24T08:37:00;2.47;;;1.77;;
60819;SDS011;46641;48.904;9.126;2023-04-24T08:41:50;1.57;;;1.23;;
60819;SDS011;46641;48.904;9.126;2023-04-24T08:46:43;1.60;;;1.50;;
60819;SDS011;46641;48.904;9.126;2023-04-24T08:51:36;2.67;;;1.40;;
60819;SDS011;46641;48.904;9.126;2023-04-24T08:56:27;1.57;;;1.47;;
60819;SDS011;46641;48.904;9.126;2023-04-24T09:01:19;1.23;;;1.23;;
60819;SDS011;46641;48.904;9.126;2023-04-24T09:06:10;1.40;;;1.30;;
60819;SDS011;46641;48.904;9.126;2023-04-24T09:11:01;1.40;;;1.30;;
60819;SDS011;46641;48.904;9.126;2023-04-24T09:15:53;3.10;;;1.50;;
60819;SDS011;46641;48.904;9.126;2023-04-24T09:25:54;1.37;;;1.10;;
60819;SDS011;46641;48.904;9.126;2023-04-24T09:30:45;1.67;;;1.20;;
60819;SDS011;46641;48.904;9.126;2023-04-24T09:35:37;2.33;;;1.27;;
60819;SDS011;46641;48.904;9.126;2023-04-24T09:40:30;2.40;;;1.33;;
60819;SDS011;46641;48.904;9.126;2023-04-24T09:45:28;1.70;;;1.50;;
60819;SDS011;46641;48.904;9.126;2023-04-24T09:50:25;1.40;;;1.30;;
60819;SDS011;46641;48.904;9.126;2023-04-24T09:55:19;1.93;;;1.70;;
60819;SDS011;46641;48.904;9.126;2023-04-24T10:00:10;1.13;;;1.13;;
60819;SDS011;46641;48.904;9.126;2023-04-24T10:05:01;1.75;;;1.42;;
60819;SDS011;46641;48.904;9.126;2023-04-24T10:09:52;1.27;;;1.17;;
60819;SDS011;46641;48.904;9.126;2023-04-24T10:14:42;1.50;;;1.40;;
60819;SDS011;46641;48.904;9.126;2023-04-24T10:19:35;2.83;;;1.67;;
60819;SDS011;46641;48.904;9.126;2023-04-24T10:24:26;1.77;;;1.30;;
60819;SDS011;46641;48.904;9.126;2023-04-24T10:29:18;2.17;;;1.80;;
60819;SDS011;46641;48.904;9.126;2023-04-24T10:34:09;1.60;;;1.50;;
60819;SDS011;46641;48.904;9.126;2023-04-24T10:39:01;2.10;;;1.70;;
60819;SDS011;46641;48.904;9.126;2023-04-24T10:44:09;1.90;;;1.80;;
60819;SDS011;46641;48.904;9.126;2023-04-24T10:49:05;2.97;;;1.60;;
60819;SDS011;46641;48.904;9.126;2023-04-24T10:53:59;1.87;;;1.70;;
60819;SDS011;46641;48.904;9.126;2023-04-24T10:59:09;1.70;;;1.60;;
60819;SDS011;46641;48.904;9.126;2023-04-24T11:04:02;2.67;;;1.63;;
60819;SDS011;46641;48.904;9.126;2023-04-24T11:08:58;5.20;;;1.77;;
60819;SDS011;46641;48.904;9.126;2023-04-24T11:18:45;1.92;;;1.67;;
60819;SDS011;46641;48.904;9.126;2023-04-24T11:23:43;2.10;;;1.80;;
60819;SDS011;46641;48.904;9.126;2023-04-24T11:28:35;1.90;;;1.53;;
60819;SDS011;46641;48.904;9.126;2023-04-24T11:33:26;2.40;;;1.87;;
60819;SDS011;46641;48.904;9.126;2023-04-24T11:38:17;1.63;;;1.50;;
60819;SDS011;46641;48.904;9.126;2023-04-24T11:43:07;1.57;;;1.47;;
60819;SDS011;46641;48.904;9.126;2023-04-24T11:47:59;2.27;;;1.67;;
60819;SDS011;46641;48.904;9.126;2023-04-24T11:52:50;2.03;;;1.60;;
60819;SDS011;46641;48.904;9.126;2023-04-24T11:57:47;1.87;;;1.63;;
60819;SDS011;46641;48.904;9.126;2023-04-24T12:02:43;1.90;;;1.73;;
60819;SDS011;46641;48.904;9.126;2023-04-24T12:07:40;2.53;;;2.10;;
60819;SDS011;46641;48.904;9.126;2023-04-24T12:12:34;2.47;;;2.17;;
60819;SDS011;46641;48.904;9.126;2023-04-24T12:17:29;2.67;;;2.40;;
60819;SDS011;46641;48.904;9.126;2023-04-24T12:22:20;2.93;;;2.20;;
60819;SDS011;46641;48.904;9.126;2023-04-24T12:27:19;1.77;;;1.60;;
60819;SDS011;46641;48.904;9.126;2023-04-24T12:32:16;2.03;;;1.40;;
60819;SDS011;46641;48.904;9.126;2023-04-24T12:37:12;3.53;;;1.83;;
60819;SDS011;46641;48.904;9.126;2023-04-24T12:42:03;1.90;;;1.60;;
60819;SDS011;46641;48.904;9.126;2023-04-24T12:46:53;3.83;;;2.17;;
60819;SDS011;46641;48.904;9.126;2023-04-24T12:51:43;1.33;;;1.23;;
60819;SDS011;46641;48.904;9.126;2023-04-24T12:56:33;2.95;;;2.05;;
60819;SDS011;46641;48.904;9.126;2023-04-24T13:01:24;1.30;;;1.20;;
60819;SDS011;46641;48.904;9.126;2023-04-24T13:06:14;1.10;;;1.03;;
60819;SDS011;46641;48.904;9.126;2023-04-24T13:11:05;1.80;;;1.67;;
60819;SDS011;46641;48.904;9.126;2023-04-24T13:15:55;2.27;;;2.07;;
60819;SDS011;46641;48.904;9.126;2023-04-24T13:20:45;2.20;;;1.85;;
60819;SDS011;46641;48.904;9.126;2023-04-24T13:25:37;2.90;;;2.30;;
60819;SDS011;46641;48.904;9.126;2023-04-24T13:30:28;2.63;;;2.10;;
60819;SDS011;46641;48.904;9.126;2023-04-24T13:35:19;2.80;;;2.40;;
60819;SDS011;46641;48.904;9.126;2023-04-24T13:40:10;3.03;;;2.77;;
60819;SDS011;46641;48.904;9.126;2023-04-24T13:45:00;2.87;;;2.47;;
60819;SDS011;46641;48.904;9.126;2023-04-24T13:49:51;2.40;;;2.20;;
60819;SDS011;46641;48.904;9.126;2023-04-24T13:54:41;2.90;;;2.30;;
60819;SDS011;46641;48.904;9.126;2023-04-24T13:59:31;2.73;;;2.00;;
60819;SDS011;46641;48.904;9.126;2023-04-24T14:04:22;2.13;;;2.03;;
60819;SDS011;46641;48.904;9.126;2023-04-24T14:09:12;2.57;;;2.30;;
60819;SDS011;46641;48.904;9.126;2023-04-24T14:14:03;3.40;;;1.93;;
60819;SDS011;46641;48.904;9.126;2023-04-24T14:18:53;2.67;;;2.07;;
60819;SDS011;46641;48.904;9.126;2023-04-24T14:23:44;2.70;;;2.50;;
60819;SDS011;46641;48.904;9.126;2023-04-24T14:28:34;2.00;;;1.80;;
60819;SDS011;46641;48.904;9.126;2023-04-24T14:33:25;3.63;;;2.23;;
60819;SDS011;46641;48.904;9.126;2023-04-24T14:38:15;3.30;;;2.20;;
60819;SDS011;46641;48.904;9.126;2023-04-24T14:43:06;1.93;;;1.80;;
60819;SDS011;46641;48.904;9.126;2023-04-24T14:47:57;2.37;;;1.77;;
60819;SDS011;46641;48.904;9.126;2023-04-24T14:52:47;3.07;;;1.90;;
60819;SDS011;46641;48.904;9.126;2023-04-24T14:57:38;2.13;;;1.63;;
60819;SDS011;46641;48.904;9.126;2023-04-24T15:02:28;1.70;;;1.60;;
60819;SDS011;46641;48.904;9.126;2023-04-24T15:07:19;2.63;;;1.70;;
60819;SDS011;46641;48.904;9.126;2023-04-24T15:12:09;2.20;;;1.70;;
60819;SDS011;46641;48.904;9.126;2023-04-24T15:17:02;2.17;;;1.97;;
60819;SDS011;46641;48.904;9.126;2023-04-24T15:21:52;2.00;;;1.90;;
60819;SDS011;46641;48.904;9.126;2023-04-24T15:26:42;2.20;;;2.00;;
60819;SDS011;46641;48.904;9.126;2023-04-24T15:31:33;2.13;;;1.83;;
60819;SDS011;46641;48.904;9.126;2023-04-24T15:36:23;1.20;;;1.15;;
60819;SDS011;46641;48.904;9.126;2023-04-24T15:41:13;1.50;;;1.40;;
60819;SDS011;46641;48.904;9.126;2023-04-24T15:46:04;1.37;;;1.30;;
60819;SDS011;46641;48.904;9.126;2023-04-24T15:50:54;1.40;;;1.30;;
60819;SDS011;46641;48.904;9.126;2023-04-24T15:55:45;1.57;;;1.47;;
60819;SDS011;46641;48.904;9.126;2023-04-24T16:00:35;3.57;;;2.00;;
60819;SDS011;46641;48.904;9.126;2023-04-24T16:05:26;1.87;;;1.77;;
60819;SDS011;46641;48.904;9.126;2023-04-24T16:10:16;1.50;;;1.40;;
60819;SDS011;46641;48.904;9.126;2023-04-24T16:15:06;1.70;;;1.60;;
60819;SDS011;46641;48.904;9.126;2023-04-24T16:19:57;1.60;;;1.50;;
60819;SDS011;46641;48.904;9.126;2023-04-24T16:24:47;1.47;;;1.37;;
60819;SDS011;46641;48.904;9.126;2023-04-24T16:29:38;1.80;;;1.70;;
60819;SDS011;46641;48.904;9.126;2023-04-24T16:34:28;1.60;;;1.43;;
60819;SDS011;46641;48.904;9.126;2023-04-24T16:39:18;3.20;;;1.50;;
60819;SDS011;46641;48.904;9.126;2023-04-24T16:44:09;1.60;;;1.50;;
60819;SDS011;46641;48.904;9.126;2023-04-24T16:48:59;1.80;;;1.67;;
60819;SDS011;46641;48.904;9.126;2023-04-24T16:53:50;1.80;;;1.70;;
60819;SDS011;46641;48.904;9.126;2023-04-24T16:58:40;1.53;;;1.43;;
60819;SDS011;46641;48.904;9.126;2023-04-24T17:03:31;1.53;;;1.43;;
60819;SDS011;46641;48.904;9.126;2023-04-24T17:08:22;1.85;;;1.45;;
60819;SDS011;46641;48.904;9.126;2023-04-24T17:13:12;1.80;;;1.70;;
60819;SDS011;46641;48.904;9.126;2023-04-24T17:18:03;1.77;;;1.67;;
60819;SDS011;46641;48.904;9.126;2023-04-24T17:22:54;1.83;;;1.73;;
60819;SDS011;46641;48.904;9.126;2023-04-24T17:27:45;2.00;;;1.60;;
60819;SDS011;46641;48.904;9.126;2023-04-24T17:32:35;1.77;;;1.67;;
60819;SDS011;46641;48.904;9.126;2023-04-24T17:37:25;1.80;;;1.70;;
60819;SDS011;46641;48.904;9.126;2023-04-24T17:42:16;2.15;;;1.80;;
60819;SDS011;46641;48.904;9.126;2023-04-24T17:47:06;1.80;;;1.70;;
60819;SDS011;46641;48.904;9.126;2023-04-24T17:51:57;2.07;;;1.70;;
60819;SDS011;46641;48.904;9.126;2023-04-24T17:56:47;1.63;;;1.53;;
60819;SDS011;46641;48.904;9.126;2023-04-24T18:01:37;2.53;;;1.60;;
60819;SDS011;46641;48.904;9.126;2023-04-24T18:06:28;2.28;;;2.08;;
60819;SDS011;46641;48.904;9.126;2023-04-24T18:11:18;2.40;;;2.10;;
60819;SDS011;46641;48.904;9.126;2023-04-24T18:16:09;1.73;;;1.63;;
60819;SDS011;46641;48.904;9.126;2023-04-24T18:20:59;1.90;;;1.80;;
60819;SDS011;46641;48.904;9.126;2023-04-24T18:25:50;2.03;;;1.70;;
60819;SDS011;46641;48.904;9.126;2023-04-24T18:30:41;1.92;;;1.75;;
60819;SDS011;46641;48.904;9.126;2023-04-24T18:35:32;1.73;;;1.63;;
60819;SDS011;46641;48.904;9.126;2023-04-24T18:40:22;2.07;;;1.50;;
60819;SDS011;46641;48.904;9.126;2023-04-24T18:45:12;1.60;;;1.50;;
60819;SDS011;46641;48.904;9.126;2023-04-24T18:50:03;1.67;;;1.57;;
60819;SDS011;46641;48.904;9.126;2023-04-24T18:54:54;1.60;;;1.50;;
60819;SDS011;46641;48.904;9.126;2023-04-24T18:59:44;2.43;;;1.90;;
60819;SDS011;46641;48.904;9.126;2023-04-24T19:04:35;2.13;;;1.70;;
60819;SDS011;46641;48.904;9.126;2023-04-24T19:09:25;1.70;;;1.60;;
60819;SDS011;46641;48.904;9.126;2023-04-24T19:14:15;2.00;;;1.90;;
60819;SDS011;46641;48.904;9.126;2023-04-24T19:19:06;3.33;;;2.10;;
60819;SDS011;46641;48.904;9.126;2023-04-24T19:23:56;2.40;;;1.90;;
60819;SDS011;46641;48.904;9.126;2023-04-24T19:28:47;1.85;;;1.70;;
60819;SDS011;46641;48.904;9.126;2023-04-24T19:33:37;1.70;;;1.60;;
60819;SDS011;46641;48.904;9.126;2023-04-24T19:38:27;3.23;;;1.90;;
60819;SDS011;46641;48.904;9.126;2023-04-24T19:43:20;2.43;;;2.17;;
60819;SDS011;46641;48.904;9.126;2023-04-24T19:48:11;1.73;;;1.63;;
60819;SDS011;46641;48.904;9.126;2023-04-24T19:53:01;2.00;;;1.90;;
60819;SDS011;46641;48.904;9.126;2023-04-24T19:57:52;2.23;;;1.80;;
60819;SDS011;46641;48.904;9.126;2023-04-24T20:02:42;1.60;;;1.50;;
60819;SDS011;46641;48.904;9.126;2023-04-24T20:07:33;2.17;;;2.08;;
60819;SDS011;46641;48.904;9.126;2023-04-24T20:12:23;2.50;;;2.00;;
60819;SDS011;46641;48.904;9.126;2023-04-24T20:17:14;4.05;;;1.90;;
60819;SDS011;46641;48.904;9.126;2023-04-24T20:22:05;1.90;;;1.80;;
60819;SDS011;46641;48.904;9.126;2023-04-24T20:26:56;1.83;;;1.73;;
60819;SDS011;46641;48.904;9.126;2023-04-24T20:31:46;2.85;;;1.90;;
60819;SDS011;46641;48.904;9.126;2023-04-24T20:36:37;3.07;;;1.90;;
60819;SDS011;46641;48.904;9.126;2023-04-24T20:41:27;2.20;;;2.00;;
60819;SDS011;46641;48.904;9.126;2023-04-24T20:46:19;2.87;;;2.40;;
60819;SDS011;46641;48.904;9.126;2023-04-24T20:51:09;2.60;;;2.20;;
60819;SDS011;46641;48.904;9.126;2023-04-24T20:55:59;2.70;;;2.00;;
60819;SDS011;46641;48.904;9.126;2023-04-24T21:00:50;2.00;;;1.90;;
60819;SDS011;46641;48.904;9.126;2023-04-24T21:05:41;2.57;;;2.37;;
60819;SDS011;46641;48.904;9.126;2023-04-24T21:10:31;2.87;;;2.13;;
60819;SDS011;46641;48.904;9.126;2023-04-24T21:15:21;2.38;;;2.28;;
60819;SDS011;46641;48.904;9.126;2023-04-24T21:20:12;3.30;;;3.03;;
60819;SDS011;46641;48.904;9.126;2023-04-24T21:25:02;2.57;;;2.37;;
60819;SDS011;46641;48.904;9.126;2023-04-24T21:29:53;4.17;;;2.60;;
60819;SDS011;46641;48.904;9.126;2023-04-24T21:34:43;2.63;;;2.40;;
60819;SDS011;46641;48.904;9.126;2023-04-24T21:39:33;2.97;;;2.67;;
60819;SDS011;46641;48.904;9.126;2023-04-24T21:44:24;2.60;;;2.33;;
60819;SDS011;46641;48.904;9.126;2023-04-24T21:49:14;4.20;;;2.13;;
60819;SDS011;46641;48.904;9.126;2023-04-24T21:54:05;3.00;;;2.80;;
60819;SDS011;46641;48.904;9.126;2023-04-24T21:58:55;5.03;;;3.25;;
60819;SDS011;46641;48.904;9.126;2023-04-24T22:03:45;2.63;;;2.43;;
60819;SDS011;46641;48.904;9.126;2023-04-24T22:08:36;2.70;;;2.50;;
60819;SDS011;46641;48.904;9.126;2023-04-24T22:13:26;2.80;;;2.53;;
60819;SDS011;46641;48.904;9.126;2023-04-24T22:18:17;2.67;;;2.47;;
60819;SDS011;46641;48.904;9.126;2023-04-24T22:23:07;3.00;;;2.27;;
60819;SDS011;46641;48.904;9.126;2023-04-24T22:27:58;2.67;;;2.47;;
60819;SDS011;46641;48.904;9.126;2023-04-24T22:32:48;2.63;;;2.43;;
60819;SDS011;46641;48.904;9.126;2023-04-24T22:37:38;2.90;;;2.60;;
60819;SDS011;46641;48.904;9.126;2023-04-24T22:42:28;3.13;;;2.40;;
60819;SDS011;46641;48.904;9.126;2023-04-24T22:47:19;2.73;;;2.53;;
60819;SDS011;46641;48.904;9.126;2023-04-24T22:52:09;2.60;;;2.40;;
60819;SDS011;46641;48.904;9.126;2023-04-24T22:57:00;2.60;;;2.40;;
60819;SDS011;46641;48.904;9.126;2023-04-24T23:01:52;3.30;;;2.50;;
60819;SDS011;46641;48.904;9.126;2023-04-24T23:06:43;2.55;;;2.25;;
60819;SDS011;46641;48.904;9.126;2023-04-24T23:11:33;2.63;;;2.40;;
60819;SDS011;46641;48.904;9.126;2023-04-24T23:16:23;2.72;;;2.45;;
60819;SDS011;46641;48.904;9.126;2023-04-24T23:21:14;2.30;;;2.10;;
60819;SDS011;46641;48.904;9.126;2023-04-24T23:26:04;2.10;;;1.90;;
60819;SDS011;46641;48.904;9.126;2023-04-24T23:30:54;3.10;;;2.80;;
60819;SDS011;46641;48.904;9.126;2023-04-24T23:35:45;3.00;;;2.30;;
60819;SDS011;46641;48.904;9.126;2023-04-24T23:40:35;1.67;;;1.57;;
60819;SDS011;46641;48.904;9.126;2023-04-24T23:45:25;2.73;;;2.47;;
60819;SDS011;46641;48.904;9.126;2023-04-24T23:50:16;2.20;;;2.00;;
60819;SDS011;46641;48.904;9.126;2023-04-24T23:55:06;2.37;;;2.17;;
60819;SDS011;46641;48.904;9.126;2023-04-24T23:59:58;2.00;;;1.80;;
